Time;durP1;ratioP1;P1;durP2;ratioP2;P2;SDS_P1;SDS_P2;PMS_P1;PMS_P2;Temp;Humidity;BMP_temperature;BMP_pressure;BME280_temperature;BME280_humidity;BME280_pressure;Samples;Min_cycle;Max_cycle;Signal;HPM_P1;HPM_P2
2022/06/25 05:00:36;;;;;;;2.30;2.10;;;17.40;97.20;;;;;;1713553;28;20186;-72
2022/06/25 05:01:26;;;;;;;3.35;1.65;;;17.40;97.20;;;;;;1713753;28;20465;-72
2022/06/25 05:02:18;;;;;;;2.30;1.63;;;17.40;97.20;;;;;;1713849;28;20269;-72
2022/06/25 05:03:09;;;;;;;1.67;1.58;;;17.40;97.20;;;;;;1713750;28;20221;-72
2022/06/25 05:04:01;;;;;;;1.85;1.75;;;17.40;97.20;;;;;;1713815;28;20201;-72
2022/06/25 05:04:52;;;;;;;2.65;1.85;;;17.40;97.20;;;;;;1713763;28;20227;-72
2022/06/25 05:05:43;;;;;;;1.60;1.50;;;17.40;97.20;;;;;;1713825;28;20288;-72
2022/06/25 05:06:35;;;;;;;1.80;1.70;;;17.40;97.20;;;;;;1713408;28;20280;-72
2022/06/25 05:07:26;;;;;;;2.35;1.75;;;17.40;97.20;;;;;;1713885;28;20205;-72
2022/06/25 05:08:17;;;;;;;1.63;1.52;;;17.50;97.20;;;;;;1709769;28;20659;-72
2022/06/25 05:09:09;;;;;;;6.20;2.10;;;17.50;97.20;;;;;;1707042;29;20627;-72
2022/06/25 05:10:00;;;;;;;1.88;1.60;;;17.50;97.20;;;;;;1707173;29;20205;-72
2022/06/25 05:10:52;;;;;;;3.47;1.80;;;17.50;97.20;;;;;;1707030;29;20294;-72
2022/06/25 05:11:43;;;;;;;1.60;1.50;;;17.50;97.20;;;;;;1707102;29;20602;-72
2022/06/25 05:13:44;;;;;;;1.98;1.85;;;17.50;97.20;;;;;;1707263;29;20233;-72
2022/06/25 05:14:35;;;;;;;2.67;1.80;;;17.60;97.20;;;;;;1707057;29;20206;-72
2022/06/25 05:15:27;;;;;;;2.33;1.50;;;17.60;97.20;;;;;;1707118;29;20297;-72
2022/06/25 05:16:19;;;;;;;4.15;1.70;;;17.60;97.20;;;;;;1706955;29;20202;-72
2022/06/25 05:17:11;;;;;;;1.92;1.75;;;17.60;97.20;;;;;;1706804;29;20203;-72
2022/06/25 05:18:02;;;;;;;1.90;1.70;;;17.60;97.20;;;;;;1708171;28;20207;-72
2022/06/25 05:18:54;;;;;;;3.33;1.40;;;17.70;97.20;;;;;;1713645;28;20206;-72
2022/06/25 05:19:44;;;;;;;2.75;1.77;;;17.70;97.20;;;;;;1713753;28;20453;-72
2022/06/25 05:20:40;;;;;;;2.63;2.00;;;17.60;97.20;;;;;;1714461;28;20288;-72
2022/06/25 05:21:30;;;;;;;1.90;1.80;;;17.60;97.20;;;;;;1714936;28;20696;-72
2022/06/25 05:22:23;;;;;;;1.87;1.77;;;17.60;97.20;;;;;;1715171;28;20580;-72
2022/06/25 05:23:14;;;;;;;2.00;1.80;;;17.60;97.20;;;;;;1715000;28;20210;-72
2022/06/25 05:24:06;;;;;;;2.13;2.03;;;17.60;97.20;;;;;;1715099;28;20681;-72
2022/06/25 05:24:57;;;;;;;2.75;1.92;;;17.60;97.20;;;;;;1714998;28;20205;-72
2022/06/25 05:25:49;;;;;;;1.77;1.63;;;17.60;97.20;;;;;;1715045;28;20206;-71
2022/06/25 05:26:39;;;;;;;3.15;1.70;;;17.60;97.20;;;;;;1714753;28;20464;-72
2022/06/25 05:27:31;;;;;;;2.10;2.00;;;17.60;97.20;;;;;;1714982;28;20312;-72
2022/06/25 05:28:22;;;;;;;3.30;1.90;;;17.60;97.20;;;;;;1710985;28;20458;-72
2022/06/25 05:29:14;;;;;;;4.60;1.50;;;17.60;97.20;;;;;;1708261;29;20290;-72
2022/06/25 05:30:06;;;;;;;2.10;1.88;;;17.60;97.20;;;;;;1708214;28;20222;-71
2022/06/25 05:30:58;;;;;;;2.35;1.80;;;17.70;97.20;;;;;;1708203;28;20201;-72
2022/06/25 05:31:50;;;;;;;1.95;1.60;;;17.70;97.20;;;;;;1708346;29;20233;-72
2022/06/25 05:32:41;;;;;;;2.20;1.65;;;17.70;97.20;;;;;;1708371;29;20289;-72
2022/06/25 05:33:32;;;;;;;2.47;1.77;;;17.70;97.20;;;;;;1708346;29;20586;-72
2022/06/25 05:34:24;;;;;;;2.70;2.13;;;17.70;97.20;;;;;;1708445;29;20220;-72
2022/06/25 05:35:15;;;;;;;2.28;1.67;;;17.70;97.20;;;;;;1708334;29;20206;-72
2022/06/25 05:36:07;;;;;;;2.73;1.73;;;17.80;97.20;;;;;;1708355;29;20278;-72
2022/06/25 05:36:57;;;;;;;3.15;1.95;;;17.80;97.20;;;;;;1708090;29;20446;-72
2022/06/25 05:37:49;;;;;;;1.73;1.50;;;17.80;97.20;;;;;;1708308;29;20289;-72
2022/06/25 05:38:40;;;;;;;1.70;1.50;;;17.80;97.20;;;;;;1708530;28;20610;-72
2022/06/25 05:39:32;;;;;;;2.33;1.67;;;17.80;97.20;;;;;;1708342;29;20297;-72
2022/06/25 05:40:23;;;;;;;1.98;1.80;;;17.80;97.20;;;;;;1708383;29;20213;-72
2022/06/25 05:41:14;;;;;;;1.90;1.80;;;17.80;97.20;;;;;;1708277;29;20222;-72
2022/06/25 05:42:05;;;;;;;3.42;2.05;;;17.80;97.20;;;;;;1708244;29;20229;-72
2022/06/25 05:42:57;;;;;;;3.90;2.00;;;17.80;97.20;;;;;;1708283;29;20198;-72
2022/06/25 05:43:48;;;;;;;2.28;2.08;;;17.90;97.20;;;;;;1708388;29;20480;-72
2022/06/25 05:44:40;;;;;;;3.20;2.10;;;17.90;97.20;;;;;;1708291;29;20315;-72
2022/06/25 05:45:31;;;;;;;2.50;2.17;;;17.90;97.20;;;;;;1708233;29;20210;-72
2022/06/25 05:46:23;;;;;;;2.75;1.77;;;17.90;97.20;;;;;;1708470;29;20229;-72
2022/06/25 05:47:15;;;;;;;1.65;1.55;;;17.90;97.20;;;;;;1707977;29;20199;-72
2022/06/25 05:48:07;;;;;;;2.30;1.60;;;17.90;97.20;;;;;;1709177;28;20294;-72
2022/06/25 05:48:57;;;;;;;4.22;2.17;;;17.90;97.20;;;;;;1714957;28;20205;-72
2022/06/25 05:49:49;;;;;;;1.77;1.67;;;17.90;97.20;;;;;;1714920;28;20701;-72
2022/06/25 05:50:40;;;;;;;2.35;1.50;;;18.00;97.20;;;;;;1714896;28;20216;-72
2022/06/25 05:51:32;;;;;;;1.80;1.50;;;18.00;97.20;;;;;;1714765;28;20293;-72
2022/06/25 05:52:23;;;;;;;1.90;1.80;;;18.00;97.20;;;;;;1715002;28;20456;-72
2022/06/25 05:53:14;;;;;;;3.33;2.00;;;18.00;97.20;;;;;;1714833;28;20280;-72
2022/06/25 05:54:05;;;;;;;1.90;1.65;;;18.00;97.20;;;;;;1714903;28;20205;-72
2022/06/25 05:54:57;;;;;;;3.03;1.60;;;18.10;97.20;;;;;;1714906;28;20194;-72
2022/06/25 05:55:48;;;;;;;3.05;1.73;;;18.10;97.20;;;;;;1714874;28;20665;-72
2022/06/25 05:56:39;;;;;;;2.90;1.57;;;18.10;97.20;;;;;;1714675;28;20634;-73
2022/06/25 05:57:30;;;;;;;1.83;1.73;;;18.10;97.20;;;;;;1714929;28;20242;-72
2022/06/25 05:58:22;;;;;;;1.40;1.30;;;18.20;97.20;;;;;;1711504;28;20201;-72
2022/06/25 05:59:13;;;;;;;2.47;1.70;;;18.20;97.20;;;;;;1708218;29;20635;-72
2022/06/25 06:00:06;;;;;;;1.60;1.40;;;18.20;97.20;;;;;;1708209;29;20202;-72
2022/06/25 06:00:56;;;;;;;1.50;1.40;;;18.20;97.20;;;;;;1708225;29;20206;-72
2022/06/25 06:01:48;;;;;;;2.60;1.87;;;18.20;97.20;;;;;;1708120;29;20756;-72
2022/06/25 06:02:40;;;;;;;1.38;1.27;;;18.20;97.20;;;;;;1708262;29;20210;-72
2022/06/25 06:03:32;;;;;;;3.28;1.60;;;18.20;97.20;;;;;;1708241;29;20587;-72
2022/06/25 06:04:23;;;;;;;2.97;1.80;;;18.30;97.20;;;;;;1708192;29;20207;-72
2022/06/25 06:05:14;;;;;;;2.20;1.80;;;18.30;97.20;;;;;;1708157;29;20289;-72
2022/06/25 06:06:05;;;;;;;1.92;1.70;;;18.30;97.20;;;;;;1708177;29;20218;-72
2022/06/25 06:06:59;;;;;;;1.50;1.40;;;18.30;97.20;;;;;;1707896;29;20290;-72
2022/06/25 06:07:50;;;;;;;1.60;1.50;;;18.30;97.20;;;;;;1708171;29;20297;-72
2022/06/25 06:08:42;;;;;;;1.63;1.53;;;18.30;97.20;;;;;;1713451;28;20197;-72
2022/06/25 06:09:32;;;;;;;2.13;1.70;;;18.30;97.20;;;;;;1714667;28;20229;-72
2022/06/25 06:10:24;;;;;;;2.43;1.60;;;18.30;97.20;;;;;;1714917;28;20293;-72
2022/06/25 06:11:15;;;;;;;1.40;1.30;;;18.30;97.20;;;;;;1714811;28;20198;-72
2022/06/25 06:12:07;;;;;;;6.50;1.83;;;18.30;97.20;;;;;;1714802;28;20224;-72
2022/06/25 06:12:58;;;;;;;2.63;1.67;;;18.30;97.20;;;;;;1714725;28;20286;-72
2022/06/25 06:13:49;;;;;;;3.43;1.57;;;18.30;97.20;;;;;;1714847;28;20514;-72
2022/06/25 06:14:40;;;;;;;1.88;1.75;;;18.30;97.20;;;;;;1714762;28;20213;-72
2022/06/25 06:15:32;;;;;;;1.43;1.33;;;18.40;97.20;;;;;;1710418;28;20274;-72
2022/06/25 06:16:23;;;;;;;1.40;1.30;;;18.40;97.20;;;;;;1708151;29;20472;-72
2022/06/25 06:17:15;;;;;;;1.57;1.47;;;18.40;97.20;;;;;;1707869;29;20193;-72
2022/06/25 06:18:07;;;;;;;1.85;1.75;;;18.40;97.20;;;;;;1708019;28;20209;-72
2022/06/25 06:18:59;;;;;;;1.90;1.42;;;18.50;97.20;;;;;;1707981;29;20261;-72
2022/06/25 06:19:49;;;;;;;2.17;1.98;;;18.50;97.20;;;;;;1708012;29;20206;-72
2022/06/25 06:20:41;;;;;;;3.23;1.90;;;18.50;97.20;;;;;;1708138;29;20293;-72
2022/06/25 06:21:32;;;;;;;1.85;1.50;;;18.50;97.20;;;;;;1707919;29;20207;-72
2022/06/25 06:22:24;;;;;;;2.03;1.50;;;18.60;97.20;;;;;;1708113;29;20212;-72
2022/06/25 06:23:14;;;;;;;2.30;1.60;;;18.60;97.20;;;;;;1708030;29;20580;-72
2022/06/25 06:24:07;;;;;;;1.50;1.40;;;18.60;97.20;;;;;;1708107;29;20199;-72
2022/06/25 06:24:57;;;;;;;1.50;1.40;;;18.60;97.20;;;;;;1708046;29;20202;-72
2022/06/25 06:25:49;;;;;;;2.07;1.57;;;18.60;97.20;;;;;;1713273;28;20288;-72
2022/06/25 06:26:41;;;;;;;1.80;1.40;;;18.60;97.20;;;;;;1714501;28;20500;-72
2022/06/25 06:27:32;;;;;;;2.25;1.63;;;18.70;97.20;;;;;;1714674;28;20201;-72
2022/06/25 06:28:23;;;;;;;2.70;1.42;;;18.70;97.20;;;;;;1714686;28;20206;-72
2022/06/25 06:29:17;;;;;;;3.33;1.67;;;18.70;97.20;;;;;;1714574;28;20202;-72
2022/06/25 06:30:10;;;;;;;1.40;1.30;;;18.70;97.20;;;;;;1714573;28;20233;-72
2022/06/25 06:31:02;;;;;;;2.05;1.67;;;18.70;97.20;;;;;;1714280;28;20202;-72
2022/06/25 06:31:53;;;;;;;1.73;1.42;;;18.80;97.20;;;;;;1714511;28;20238;-72
2022/06/25 06:32:46;;;;;;;2.20;1.53;;;18.80;97.20;;;;;;1714686;28;20234;-72
2022/06/25 06:33:38;;;;;;;1.70;1.60;;;18.80;97.20;;;;;;1714663;28;20209;-72
2022/06/25 06:34:29;;;;;;;3.83;1.45;;;18.80;97.20;;;;;;1714638;28;20210;-72
2022/06/25 06:35:20;;;;;;;1.77;1.67;;;18.90;97.20;;;;;;1712844;28;20206;-72
2022/06/25 06:36:13;;;;;;;1.40;1.30;;;18.90;97.20;;;;;;1707960;28;20289;-72
2022/06/25 06:37:04;;;;;;;3.42;1.50;;;18.90;97.20;;;;;;1707766;29;20536;-72
2022/06/25 06:37:56;;;;;;;1.48;1.38;;;18.90;97.20;;;;;;1707855;29;20684;-72
2022/06/25 06:38:47;;;;;;;1.58;1.38;;;19.00;97.20;;;;;;1707920;29;20206;-72
2022/06/25 06:39:39;;;;;;;2.43;2.23;;;19.00;97.20;;;;;;1707936;29;20289;-72
2022/06/25 06:40:29;;;;;;;1.60;1.50;;;19.00;97.20;;;;;;1708006;29;20206;-72
2022/06/25 06:41:21;;;;;;;1.50;1.40;;;19.10;97.20;;;;;;1707934;29;20236;-72
2022/06/25 06:42:12;;;;;;;2.03;1.75;;;19.10;97.20;;;;;;1707911;29;20616;-72
2022/06/25 06:43:04;;;;;;;1.52;1.30;;;19.20;97.20;;;;;;1708008;29;20202;-72
2022/06/25 06:43:55;;;;;;;1.70;1.20;;;19.20;97.20;;;;;;1707921;28;20260;-72
2022/06/25 06:44:47;;;;;;;1.50;1.40;;;19.20;97.20;;;;;;1707943;29;20274;-72
2022/06/25 06:45:37;;;;;;;2.30;1.75;;;19.20;97.20;;;;;;1703494;28;20206;-72
2022/06/25 06:46:29;;;;;;;1.50;1.40;;;19.30;97.20;;;;;;1701299;29;20337;-72
2022/06/25 06:47:20;;;;;;;1.40;1.30;;;19.30;97.20;;;;;;1701020;29;20234;-72
2022/06/25 06:48:12;;;;;;;1.30;1.20;;;19.30;97.20;;;;;;1701250;29;20206;-72
2022/06/25 06:49:04;;;;;;;1.30;1.20;;;19.30;97.20;;;;;;1701304;29;20207;-72
2022/06/25 06:49:56;;;;;;;1.70;1.20;;;19.30;97.20;;;;;;1701213;29;20242;-72
2022/06/25 06:50:46;;;;;;;1.52;1.42;;;19.40;97.20;;;;;;1701268;29;20648;-72
2022/06/25 06:51:38;;;;;;;1.83;1.53;;;19.40;97.20;;;;;;1701201;29;20293;-72
2022/06/25 06:52:29;;;;;;;1.67;1.48;;;19.40;97.20;;;;;;1701406;29;20218;-72
2022/06/25 06:53:22;;;;;;;2.10;1.47;;;19.40;97.20;;;;;;1701459;29;20237;-72
2022/06/25 06:54:13;;;;;;;2.00;1.48;;;19.40;97.20;;;;;;1701226;29;20211;-72
2022/06/25 06:55:05;;;;;;;1.50;1.40;;;19.40;97.20;;;;;;1701381;29;20259;-72
2022/06/25 06:55:56;;;;;;;1.42;1.33;;;19.40;97.20;;;;;;1713475;28;20206;-72
2022/06/25 06:56:48;;;;;;;2.20;1.50;;;19.40;97.20;;;;;;1714196;28;20205;-72
2022/06/25 06:57:39;;;;;;;1.50;1.40;;;19.40;97.20;;;;;;1714474;28;20224;-72
2022/06/25 06:58:31;;;;;;;3.63;1.37;;;19.40;97.20;;;;;;1714432;28;20292;-72
2022/06/25 06:59:22;;;;;;;3.00;1.48;;;19.40;97.20;;;;;;1714605;28;20206;-72
2022/06/25 07:00:14;;;;;;;2.03;1.30;;;19.50;97.20;;;;;;1714500;28;20277;-72
2022/06/25 07:01:05;;;;;;;2.55;1.58;;;19.50;97.20;;;;;;1714468;28;20468;-72
2022/06/25 07:01:58;;;;;;;1.30;1.20;;;19.50;97.20;;;;;;1714392;28;20256;-72
2022/06/25 07:02:48;;;;;;;2.65;1.50;;;19.50;97.20;;;;;;1714489;28;20453;-72
2022/06/25 07:03:40;;;;;;;1.63;1.50;;;19.60;97.20;;;;;;1714496;28;20238;-72
2022/06/25 07:04:32;;;;;;;1.65;1.30;;;19.60;97.20;;;;;;1714509;28;20214;-72
2022/06/25 07:05:24;;;;;;;1.60;1.50;;;19.60;97.20;;;;;;1712701;28;20237;-72
2022/06/25 07:06:15;;;;;;;1.45;1.35;;;19.60;97.20;;;;;;1707704;29;20210;-72
2022/06/25 07:07:06;;;;;;;2.23;1.47;;;19.70;97.20;;;;;;1707612;29;20290;-72
2022/06/25 07:07:57;;;;;;;1.35;1.25;;;19.70;97.20;;;;;;1707734;29;20210;-72
2022/06/25 07:08:49;;;;;;;1.50;1.40;;;19.70;97.20;;;;;;1707861;29;20285;-72
2022/06/25 07:09:40;;;;;;;1.50;1.40;;;19.80;97.20;;;;;;1707685;29;20206;-72
2022/06/25 07:10:32;;;;;;;2.08;1.88;;;19.80;97.20;;;;;;1707849;29;20255;-72
2022/06/25 07:11:29;;;;;;;2.05;1.45;;;19.80;97.20;;;;;;1707763;29;20218;-72
2022/06/25 07:12:21;;;;;;;1.67;1.55;;;19.90;97.20;;;;;;1707794;29;20214;-72
2022/06/25 07:13:11;;;;;;;1.55;1.30;;;19.90;97.20;;;;;;1707730;29;20213;-71
2022/06/25 07:14:05;;;;;;;1.70;1.60;;;19.90;97.20;;;;;;1707769;29;20285;-72
2022/06/25 07:14:55;;;;;;;3.53;1.38;;;19.90;97.20;;;;;;1707747;29;20918;-72
2022/06/25 07:15:47;;;;;;;1.37;1.27;;;19.90;97.20;;;;;;1711789;28;20611;-72
2022/06/25 07:16:38;;;;;;;1.65;1.55;;;19.90;97.20;;;;;;1714107;28;20238;-72
2022/06/25 07:17:29;;;;;;;2.67;1.43;;;20.00;97.20;;;;;;1714432;28;20253;-72
2022/06/25 07:18:20;;;;;;;1.70;1.52;;;20.00;97.20;;;;;;1714280;28;20206;-72
2022/06/25 07:19:12;;;;;;;2.20;2.00;;;20.00;97.20;;;;;;1714372;28;20202;-72
2022/06/25 07:20:06;;;;;;;1.40;1.30;;;20.10;97.20;;;;;;1714326;28;20225;-72
2022/06/25 07:20:58;;;;;;;1.80;1.20;;;20.00;97.20;;;;;;1714394;28;20553;-72
2022/06/25 07:21:49;;;;;;;1.52;1.38;;;20.10;97.20;;;;;;1714059;28;20218;-72
2022/06/25 07:22:40;;;;;;;2.22;1.95;;;20.10;97.20;;;;;;1714400;28;20212;-72
2022/06/25 07:23:31;;;;;;;2.00;1.45;;;20.10;97.20;;;;;;1714361;28;20206;-72
2022/06/25 07:24:23;;;;;;;1.60;1.40;;;20.10;97.20;;;;;;1714418;28;20198;-72
2022/06/25 07:25:14;;;;;;;1.50;1.40;;;20.10;97.20;;;;;;1714045;28;20202;-72
2022/06/25 07:26:06;;;;;;;2.20;1.27;;;20.20;97.20;;;;;;1707770;28;20301;-72
2022/06/25 07:26:56;;;;;;;1.38;1.27;;;20.20;97.20;;;;;;1707444;29;20206;-72
2022/06/25 07:27:48;;;;;;;1.87;1.50;;;20.20;97.20;;;;;;1707732;28;20212;-72
2022/06/25 07:28:39;;;;;;;1.70;1.60;;;20.20;97.20;;;;;;1707745;29;20206;-72
2022/06/25 07:29:31;;;;;;;1.77;1.57;;;20.20;97.20;;;;;;1707790;28;20682;-72
2022/06/25 07:30:21;;;;;;;4.10;1.70;;;20.30;97.20;;;;;;1707372;29;20496;-72
2022/06/25 07:31:14;;;;;;;2.00;1.70;;;20.30;97.20;;;;;;1707549;29;20226;-72
2022/06/25 07:32:05;;;;;;;4.60;1.50;;;20.30;97.20;;;;;;1707500;29;20234;-72
2022/06/25 07:32:57;;;;;;;5.00;2.05;;;20.30;97.20;;;;;;1707667;29;20202;-73
2022/06/25 07:33:49;;;;;;;3.42;1.65;;;20.30;97.20;;;;;;1707609;29;20211;-72
2022/06/25 07:34:41;;;;;;;2.50;1.90;;;20.30;97.20;;;;;;1707626;29;20285;-72
2022/06/25 07:35:33;;;;;;;2.85;1.50;;;20.40;97.20;;;;;;1709273;28;20681;-72
2022/06/25 07:36:24;;;;;;;2.17;1.60;;;20.40;97.20;;;;;;1714300;28;20241;-73
2022/06/25 07:37:15;;;;;;;3.45;1.77;;;20.40;97.20;;;;;;1714007;28;20217;-72
2022/06/25 07:38:07;;;;;;;2.47;1.63;;;20.40;97.20;;;;;;1714203;28;20297;-73
2022/06/25 07:39:00;;;;;;;2.45;1.70;;;20.40;97.20;;;;;;1714281;28;20212;-72
2022/06/25 07:39:52;;;;;;;1.55;1.40;;;20.40;97.20;;;;;;1714251;28;20685;-73
2022/06/25 07:40:42;;;;;;;3.05;1.70;;;20.40;97.20;;;;;;1714315;28;20201;-72
2022/06/25 07:41:34;;;;;;;3.73;1.97;;;20.40;97.20;;;;;;1714120;28;20202;-72
2022/06/25 07:42:25;;;;;;;3.42;2.13;;;20.50;97.20;;;;;;1714134;28;20210;-73
2022/06/25 07:43:17;;;;;;;3.53;1.87;;;20.50;97.20;;;;;;1713559;28;20233;-73
2022/06/25 07:44:08;;;;;;;1.50;1.40;;;20.50;97.20;;;;;;1714185;28;20198;-72
2022/06/25 07:45:00;;;;;;;1.93;1.70;;;20.50;97.20;;;;;;1714231;28;20226;-73
2022/06/25 07:45:50;;;;;;;2.10;1.73;;;20.50;97.20;;;;;;1709537;28;20198;-72
2022/06/25 07:46:42;;;;;;;1.73;1.63;;;20.50;97.20;;;;;;1707419;29;20293;-73
2022/06/25 07:47:37;;;;;;;4.35;1.73;;;20.50;97.20;;;;;;1707495;29;20206;-72
2022/06/25 07:48:28;;;;;;;4.28;2.22;;;20.50;97.20;;;;;;1707484;29;20670;-73
2022/06/25 07:49:19;;;;;;;1.95;1.83;;;20.50;97.20;;;;;;1707579;29;20203;-73
2022/06/25 07:52:30;;;;;;;2.47;1.80;;;20.60;97.20;;;;;;1707540;29;20696;-73
2022/06/25 07:53:21;;;;;;;2.70;2.20;;;20.60;97.20;;;;;;1707558;29;20207;-73
2022/06/25 07:54:13;;;;;;;2.10;1.87;;;20.60;97.20;;;;;;1707538;29;20190;-73
2022/06/25 07:55:05;;;;;;;1.77;1.67;;;20.60;97.20;;;;;;1707624;29;20454;-73
2022/06/25 07:55:57;;;;;;;4.40;1.70;;;20.70;97.20;;;;;;1712018;28;20617;-72
2022/06/25 07:56:48;;;;;;;4.15;1.73;;;20.70;97.20;;;;;;1713850;28;20205;-73
2022/06/25 07:57:39;;;;;;;1.60;1.50;;;20.70;97.20;;;;;;1714128;28;20284;-73
2022/06/25 07:58:31;;;;;;;1.75;1.55;;;20.70;97.20;;;;;;1714058;28;20449;-73
2022/06/25 07:59:22;;;;;;;5.43;2.40;;;20.70;97.20;;;;;;1714085;28;20252;-73
2022/06/25 08:00:14;;;;;;;2.78;2.00;;;20.70;97.20;;;;;;1714064;28;20206;-73
2022/06/25 08:01:06;;;;;;;1.70;1.60;;;20.70;97.20;;;;;;1714169;28;20232;-73
2022/06/25 08:01:57;;;;;;;2.45;1.60;;;20.70;97.20;;;;;;1713995;28;20222;-73
2022/06/25 08:02:49;;;;;;;2.13;1.43;;;20.70;97.20;;;;;;1714131;28;20288;-73
2022/06/25 08:03:40;;;;;;;3.05;1.90;;;20.80;97.20;;;;;;1714179;28;20578;-73
2022/06/25 08:04:32;;;;;;;4.90;2.92;;;20.80;97.20;;;;;;1714050;28;20265;-73
2022/06/25 08:05:22;;;;;;;2.85;2.10;;;20.80;97.20;;;;;;1713790;28;20208;-73
2022/06/25 08:06:15;;;;;;;1.83;1.73;;;20.80;97.20;;;;;;1700783;29;20205;-73
2022/06/25 08:07:07;;;;;;;4.40;2.10;;;20.90;97.20;;;;;;1700645;29;20251;-73
2022/06/25 08:07:58;;;;;;;2.08;1.85;;;20.90;97.20;;;;;;1700727;29;20663;-73
2022/06/25 08:08:49;;;;;;;2.78;2.47;;;20.90;97.20;;;;;;1700786;29;20551;-73
2022/06/25 08:09:41;;;;;;;3.37;2.00;;;20.90;97.20;;;;;;1700880;29;20307;-73
2022/06/25 08:10:32;;;;;;;1.85;1.75;;;20.90;97.20;;;;;;1700801;29;20328;-72
2022/06/25 08:11:24;;;;;;;2.10;1.90;;;20.90;97.20;;;;;;1700744;29;20671;-73
2022/06/25 08:12:15;;;;;;;6.50;2.65;;;20.90;97.20;;;;;;1700728;29;20203;-72
2022/06/25 08:13:07;;;;;;;3.35;3.05;;;21.00;97.20;;;;;;1700767;29;20286;-71
2022/06/25 08:13:58;;;;;;;10.35;9.35;;;21.00;97.20;;;;;;1700744;29;20667;-71
2022/06/25 08:14:50;;;;;;;4.15;3.55;;;21.00;97.20;;;;;;1700934;29;20292;-72
2022/06/25 08:15:41;;;;;;;2.58;2.33;;;21.00;97.20;;;;;;1704527;28;20205;-70
2022/06/25 08:16:33;;;;;;;2.30;2.10;;;21.10;97.20;;;;;;1706903;29;20764;-71
2022/06/25 08:17:24;;;;;;;3.70;1.92;;;21.10;97.20;;;;;;1706964;29;20961;-72
2022/06/25 08:18:16;;;;;;;2.50;2.30;;;21.10;97.20;;;;;;1707168;29;20648;-73
2022/06/25 08:19:07;;;;;;;2.40;2.20;;;21.10;97.20;;;;;;1707342;29;20457;-72
2022/06/25 08:19:59;;;;;;;3.07;2.17;;;21.10;97.20;;;;;;1707344;29;20228;-76
2022/06/25 08:20:50;;;;;;;3.50;2.63;;;21.10;97.20;;;;;;1707314;29;20446;-72
2022/06/25 08:21:41;;;;;;;3.37;3.07;;;21.10;97.20;;;;;;1707255;29;20316;-72
2022/06/25 08:22:33;;;;;;;8.32;7.53;;;21.10;97.20;;;;;;1707203;29;20210;-72
2022/06/25 08:23:25;;;;;;;5.05;4.28;;;21.10;97.20;;;;;;1707377;29;20285;-72
2022/06/25 08:24:16;;;;;;;2.22;1.50;;;21.10;97.20;;;;;;1707265;29;20666;-73
2022/06/25 08:25:09;;;;;;;2.23;2.00;;;21.10;97.20;;;;;;1707372;29;20626;-72
2022/06/25 08:25:59;;;;;;;2.42;2.00;;;21.20;97.20;;;;;;1708239;28;20197;-72
2022/06/25 08:26:51;;;;;;;4.60;1.93;;;21.20;97.20;;;;;;1706976;29;20194;-72
2022/06/25 08:27:46;;;;;;;3.88;2.13;;;21.20;97.20;;;;;;1707367;29;20221;-72
2022/06/25 08:28:38;;;;;;;2.10;1.90;;;21.20;97.20;;;;;;1707337;28;20206;-72
2022/06/25 08:29:28;;;;;;;2.10;1.90;;;21.20;97.20;;;;;;1707309;29;20221;-73
2022/06/25 08:30:21;;;;;;;2.70;2.00;;;21.20;97.20;;;;;;1706800;28;20305;-72
2022/06/25 08:31:12;;;;;;;4.72;1.77;;;21.20;97.20;;;;;;1707254;29;20253;-72
2022/06/25 08:32:04;;;;;;;2.60;1.90;;;21.20;97.20;;;;;;1704769;28;20304;-72
2022/06/25 08:32:55;;;;;;;1.70;1.60;;;21.20;97.20;;;;;;1708200;28;20199;-73
2022/06/25 08:33:47;;;;;;;10.57;7.70;;;21.30;97.20;;;;;;1706106;29;20298;-72
2022/06/25 08:34:38;;;;;;;6.72;6.10;;;21.30;97.20;;;;;;1706331;29;20260;-72
2022/06/25 08:35:30;;;;;;;4.07;3.77;;;21.30;97.20;;;;;;1707113;28;20261;-72
2022/06/25 08:36:22;;;;;;;3.58;2.20;;;21.40;97.20;;;;;;1713513;28;20523;-72
2022/06/25 08:37:14;;;;;;;2.00;1.85;;;21.40;97.20;;;;;;1707905;28;20619;-72
2022/06/25 08:38:06;;;;;;;3.00;2.30;;;21.50;97.20;;;;;;1707144;29;20670;-72
2022/06/25 08:38:57;;;;;;;2.08;1.90;;;21.50;97.20;;;;;;1707260;28;20202;-72
2022/06/25 08:39:48;;;;;;;2.42;2.22;;;21.50;97.20;;;;;;1707268;28;20226;-72
2022/06/25 08:40:40;;;;;;;2.00;1.90;;;21.60;97.20;;;;;;1707253;28;20194;-72
2022/06/25 08:41:31;;;;;;;2.47;1.90;;;21.60;97.20;;;;;;1707035;28;20210;-72
2022/06/25 08:42:23;;;;;;;2.30;2.10;;;21.60;97.20;;;;;;1707315;28;20294;-72
2022/06/25 08:43:15;;;;;;;2.30;2.13;;;21.60;97.20;;;;;;1707197;28;20804;-72
2022/06/25 08:44:06;;;;;;;4.35;3.42;;;21.70;97.20;;;;;;1707243;28;20206;-72
2022/06/25 08:44:58;;;;;;;3.93;2.87;;;21.70;97.20;;;;;;1707178;28;20293;-72
2022/06/25 08:45:49;;;;;;;2.33;2.00;;;21.80;97.20;;;;;;1708930;28;20218;-73
2022/06/25 08:46:41;;;;;;;3.13;1.98;;;21.80;97.20;;;;;;1713560;28;20285;-72
2022/06/25 08:47:32;;;;;;;3.05;1.80;;;21.90;97.20;;;;;;1713890;28;20212;-72
2022/06/25 08:48:30;;;;;;;2.17;1.97;;;21.90;97.20;;;;;;1713791;28;20205;-72
2022/06/25 08:49:22;;;;;;;2.10;1.90;;;21.90;97.20;;;;;;1713908;28;20201;-72
2022/06/25 08:50:15;;;;;;;2.40;1.88;;;22.00;97.20;;;;;;1713618;28;20673;-72
2022/06/25 08:51:08;;;;;;;1.90;1.80;;;22.00;97.20;;;;;;1707194;29;20246;-72
2022/06/25 08:52:02;;;;;;;2.00;1.80;;;22.00;97.20;;;;;;1707091;29;20218;-72
2022/06/25 08:52:54;;;;;;;2.05;1.90;;;22.00;97.20;;;;;;1707140;29;20203;-72
2022/06/25 08:53:49;;;;;;;1.90;1.80;;;22.00;97.20;;;;;;1707278;29;20210;-72
2022/06/25 08:54:41;;;;;;;2.00;1.80;;;22.10;97.20;;;;;;1706942;29;20206;-72
2022/06/25 08:55:36;;;;;;;3.30;2.17;;;22.10;97.20;;;;;;1707090;29;20206;-72
2022/06/25 08:56:27;;;;;;;2.20;2.00;;;22.10;97.20;;;;;;1713584;28;20198;-72
2022/06/25 08:57:18;;;;;;;3.40;2.60;;;22.10;97.20;;;;;;1713485;28;20194;-72
2022/06/25 08:58:09;;;;;;;2.30;2.00;;;22.10;97.20;;;;;;1713734;28;20437;-72
2022/06/25 08:59:01;;;;;;;2.87;2.00;;;22.20;97.20;;;;;;1713804;28;20217;-72
2022/06/25 08:59:52;;;;;;;2.42;1.73;;;22.20;97.20;;;;;;1713676;28;20449;-72
2022/06/25 09:00:46;;;;;;;3.33;2.33;;;22.20;97.20;;;;;;1713911;28;20296;-72
2022/06/25 09:01:38;;;;;;;2.17;2.00;;;22.30;97.20;;;;;;1713605;28;20456;-72
2022/06/25 09:02:30;;;;;;;2.10;1.90;;;22.30;97.20;;;;;;1713847;28;20201;-72
2022/06/25 09:03:22;;;;;;;3.00;2.10;;;22.30;97.20;;;;;;1713789;28;20210;-72
2022/06/25 09:04:13;;;;;;;2.08;1.90;;;22.40;97.20;;;;;;1713792;28;20205;-72
2022/06/25 09:05:06;;;;;;;2.42;1.83;;;22.40;97.20;;;;;;1713856;28;20276;-72
2022/06/25 09:06:13;;;;;;;3.05;2.10;;;22.40;97.20;;;;;;1710834;28;20202;-72
2022/06/25 09:07:11;;;;;;;2.47;2.25;;;22.50;97.20;;;;;;1706866;29;20213;-72
2022/06/25 09:08:06;;;;;;;3.15;2.42;;;22.60;97.20;;;;;;1707067;29;20281;-72
2022/06/25 09:09:10;;;;;;;2.33;1.70;;;22.60;97.20;;;;;;1707116;28;20289;-73
2022/06/25 09:10:01;;;;;;;2.50;1.85;;;22.70;97.20;;;;;;1707086;29;20203;-72
2022/06/25 09:10:54;;;;;;;2.25;1.60;;;22.70;97.20;;;;;;1706954;29;20230;-73
2022/06/25 09:11:51;;;;;;;3.67;2.33;;;22.80;97.20;;;;;;1707165;28;20737;-73
2022/06/25 09:12:49;;;;;;;2.10;1.90;;;22.80;97.20;;;;;;1707128;29;20218;-72
2022/06/25 09:13:41;;;;;;;2.33;2.08;;;22.80;97.20;;;;;;1707255;28;20207;-72
2022/06/25 09:14:32;;;;;;;3.42;3.20;;;22.80;97.20;;;;;;1707091;29;20218;-73
2022/06/25 09:15:27;;;;;;;3.67;3.38;;;22.90;97.20;;;;;;1707214;28;20211;-73
2022/06/25 09:16:24;;;;;;;3.25;2.65;;;22.90;97.20;;;;;;1711888;28;20278;-73
2022/06/25 09:17:17;;;;;;;3.85;2.22;;;22.90;97.20;;;;;;1713534;28;20206;-73
2022/06/25 09:18:09;;;;;;;3.47;2.22;;;23.00;97.20;;;;;;1713646;28;20205;-73
2022/06/25 09:19:01;;;;;;;2.45;2.25;;;23.00;97.20;;;;;;1713770;28;20236;-73
2022/06/25 09:19:52;;;;;;;2.42;1.90;;;23.10;97.20;;;;;;1713307;28;20210;-72
2022/06/25 09:21:00;;;;;;;2.30;1.90;;;23.10;97.20;;;;;;1713383;28;20225;-73
2022/06/25 09:21:50;;;;;;;2.20;2.00;;;23.10;97.20;;;;;;1713500;28;20476;-73
2022/06/25 09:22:53;;;;;;;3.27;2.10;;;23.20;97.20;;;;;;1713727;28;20233;-72
2022/06/25 09:23:56;;;;;;;2.28;1.65;;;23.10;97.20;;;;;;1713749;28;20205;-72
2022/06/25 09:24:51;;;;;;;3.13;2.20;;;23.10;97.20;;;;;;1713701;28;20209;-72
2022/06/25 09:25:42;;;;;;;3.17;2.20;;;23.10;97.20;;;;;;1713315;28;20296;-72
2022/06/25 09:26:34;;;;;;;2.10;1.90;;;23.10;97.20;;;;;;1706801;29;20258;-73
2022/06/25 09:27:36;;;;;;;2.50;1.88;;;23.10;97.20;;;;;;1706989;29;20450;-74
2022/06/25 09:28:32;;;;;;;4.15;1.80;;;23.10;97.20;;;;;;1707093;29;20225;-75
2022/06/25 09:29:36;;;;;;;2.78;1.80;;;23.10;97.20;;;;;;1707025;29;20581;-72
2022/06/25 09:30:32;;;;;;;2.20;2.00;;;23.00;97.20;;;;;;1707175;29;20250;-72
2022/06/25 09:31:34;;;;;;;1.80;1.63;;;23.00;97.20;;;;;;1706473;28;20233;-72
2022/06/25 09:32:25;;;;;;;4.03;1.90;;;23.00;97.20;;;;;;1707142;28;20202;-72
2022/06/25 09:33:18;;;;;;;2.78;2.10;;;23.00;97.20;;;;;;1701794;28;21314;-72
2022/06/25 09:34:10;;;;;;;3.60;1.98;;;22.90;97.20;;;;;;1708578;28;20685;-72
2022/06/25 09:35:02;;;;;;;2.35;2.13;;;22.90;97.20;;;;;;1706000;28;20199;-73